Time;durP1;ratioP1;P1;durP2;ratioP2;P2;SDS_P1;SDS_P2;PMS_P1;PMS_P2;Temp;Humidity;BMP_temperature;BMP_pressure;BME280_temperature;BME280_humidity;BME280_pressure;Samples;Min_cycle;Max_cycle;Signal;HPM_P1;HPM_P2
2021/07/01 00:00:46;;;;;;;37.17;23.58;;;;;;;16.46;100.00;100070.13;3584933;39;20088;-52
2021/07/01 00:03:13;;;;;;;36.15;23.88;;;;;;;16.44;100.00;100064.09;3584781;39;20040;-57
2021/07/01 00:05:42;;;;;;;36.90;23.80;;;;;;;16.43;100.00;100067.56;3585385;39;20112;-55
2021/07/01 00:08:10;;;;;;;37.85;24.65;;;;;;;16.49;100.00;100079.56;3585009;39;20151;-49
2021/07/01 00:10:38;;;;;;;34.35;23.48;;;;;;;16.41;100.00;100077.06;3585005;39;20056;-54
2021/07/01 00:13:05;;;;;;;36.08;23.40;;;;;;;16.45;100.00;100072.69;3585136;39;20057;-56
2021/07/01 00:15:33;;;;;;;32.30;23.65;;;;;;;16.46;100.00;100077.88;3584875;39;20081;-49
2021/07/01 00:18:02;;;;;;;35.75;24.63;;;;;;;16.36;100.00;100071.09;3584905;39;20053;-56
2021/07/01 00:20:29;;;;;;;40.05;25.13;;;;;;;16.39;100.00;100062.44;3585012;39;20298;-52
2021/07/01 00:22:56;;;;;;;36.63;25.05;;;;;;;16.47;100.00;100063.22;3584735;39;20346;-54
2021/07/01 00:25:23;;;;;;;34.08;23.42;;;;;;;16.49;100.00;100061.47;3584597;39;20088;-55
2021/07/01 00:27:52;;;;;;;38.95;24.15;;;;;;;16.42;100.00;100062.41;3584825;39;20092;-53
2021/07/01 00:30:20;;;;;;;36.00;24.77;;;;;;;16.35;100.00;100061.59;3584451;39;20052;-55
2021/07/01 00:32:48;;;;;;;37.53;24.75;;;;;;;16.35;100.00;100061.59;3585038;39;20067;-57
2021/07/01 00:35:15;;;;;;;38.97;24.25;;;;;;;16.37;100.00;100057.28;3584708;39;20064;-57
2021/07/01 00:37:43;;;;;;;37.75;24.45;;;;;;;16.37;100.00;100056.44;3586126;39;20104;-55
2021/07/01 00:40:12;;;;;;;43.45;26.35;;;;;;;16.36;100.00;100052.09;3584784;39;20093;-57
2021/07/01 00:42:39;;;;;;;35.50;23.92;;;;;;;16.35;100.00;100056.41;3584759;39;20431;-55
2021/07/01 00:45:07;;;;;;;42.08;25.35;;;;;;;16.37;100.00;100049.53;3584941;39;20100;-51
2021/07/01 00:47:35;;;;;;;45.33;25.02;;;;;;;16.37;100.00;100044.38;3585097;39;20081;-52
2021/07/01 00:50:09;;;;;;;39.83;25.65;;;;;;;16.38;100.00;100050.38;3584897;39;20131;-56
2021/07/01 00:52:37;;;;;;;41.10;24.48;;;;;;;16.34;100.00;100035.78;3584860;39;20060;-56
2021/07/01 00:55:09;;;;;;;41.03;25.67;;;;;;;16.43;100.00;100036.56;3585033;39;20080;-56
2021/07/01 00:57:37;;;;;;;38.35;24.08;;;;;;;16.39;100.00;100041.75;3584863;39;20053;-54
2021/07/01 01:00:14;;;;;;;40.80;23.20;;;;;;;16.29;100.00;100038.41;3584671;39;20126;-57
2021/07/01 01:02:41;;;;;;;44.03;25.73;;;;;;;16.25;100.00;100036.69;3584856;39;20115;-53
2021/07/01 01:05:09;;;;;;;44.00;27.55;;;;;;;16.28;100.00;100047.88;3584874;39;20068;-53
2021/07/01 01:07:36;;;;;;;40.17;25.15;;;;;;;16.20;100.00;100038.47;3584937;39;20343;-55
2021/07/01 01:10:05;;;;;;;44.85;26.23;;;;;;;16.24;100.00;100029.84;3584371;39;20053;-54
2021/07/01 01:12:32;;;;;;;44.92;26.17;;;;;;;16.21;100.00;100040.19;3584666;39;20054;-55
2021/07/01 01:14:59;;;;;;;40.75;25.40;;;;;;;16.19;100.00;100034.19;3584871;39;20235;-52
2021/07/01 01:17:26;;;;;;;41.58;26.85;;;;;;;16.23;100.00;100028.13;3584359;39;20064;-53
2021/07/01 01:19:54;;;;;;;42.75;26.10;;;;;;;16.16;100.00;100031.59;3584225;39;20056;-55
2021/07/01 01:22:21;;;;;;;44.45;25.92;;;;;;;16.27;100.00;100029.81;3584407;39;20084;-51
2021/07/01 01:24:48;;;;;;;42.65;26.23;;;;;;;16.29;100.00;100026.34;3584614;39;20087;-56
2021/07/01 01:27:14;;;;;;;43.17;26.95;;;;;;;16.30;100.00;100017.69;3584428;39;20504;-53
2021/07/01 01:29:43;;;;;;;43.50;24.98;;;;;;;16.20;100.00;100015.22;3584410;39;20052;-56
2021/07/01 01:32:10;;;;;;;43.08;27.00;;;;;;;16.18;100.00;100016.97;3584473;39;20343;-53
2021/07/01 01:34:37;;;;;;;44.13;25.20;;;;;;;16.23;100.00;100013.47;3584651;39;20742;-55
2021/07/01 01:37:08;;;;;;;43.03;26.67;;;;;;;16.26;100.00;100017.75;3584357;39;20218;-53
2021/07/01 01:39:35;;;;;;;45.15;26.70;;;;;;;16.20;100.00;100018.66;3584286;39;20060;-55
2021/07/01 01:42:02;;;;;;;47.83;27.77;;;;;;;16.18;100.00;100017.81;3584472;39;20048;-56
2021/07/01 01:44:29;;;;;;;47.88;27.00;;;;;;;16.28;100.00;100014.28;3584477;39;20104;-57
2021/07/01 01:46:56;;;;;;;44.63;25.40;;;;;;;16.20;100.00;100008.31;3584341;39;20112;-55
2021/07/01 01:49:23;;;;;;;43.50;26.02;;;;;;;16.24;100.00;100014.31;3583943;39;20119;-53
2021/07/01 01:51:50;;;;;;;40.90;24.75;;;;;;;16.34;100.00;100015.97;3584464;39;20072;-53
2021/07/01 01:54:17;;;;;;;45.05;26.10;;;;;;;16.32;100.00;100015.13;3584511;39;20108;-54
2021/07/01 01:56:47;;;;;;;38.20;23.63;;;;;;;16.42;100.00;100019.34;3584416;39;20096;-54
2021/07/01 01:59:17;;;;;;;41.83;24.77;;;;;;;16.41;100.00;100015.03;3584263;39;20064;-53
2021/07/01 02:01:44;;;;;;;35.53;23.17;;;;;;;16.50;100.00;100024.41;3584183;39;20092;-55
2021/07/01 02:04:16;;;;;;;40.80;25.60;;;;;;;16.55;100.00;100020.94;3583978;39;20047;-55
2021/07/01 02:06:43;;;;;;;37.83;24.02;;;;;;;16.54;100.00;100023.53;3584610;39;20439;-54
2021/07/01 02:09:10;;;;;;;36.75;23.13;;;;;;;16.62;100.00;100015.69;3584049;39;20096;-57
2021/07/01 02:11:37;;;;;;;40.42;23.90;;;;;;;16.63;100.00;100018.25;3584549;39;20454;-56
2021/07/01 02:14:04;;;;;;;42.65;23.75;;;;;;;16.60;100.00;100018.31;3584471;39;20402;-53
2021/07/01 02:16:31;;;;;;;41.05;23.27;;;;;;;16.66;100.00;100013.06;3584156;39;20092;-58
2021/07/01 02:18:58;;;;;;;37.63;22.70;;;;;;;16.45;100.00;100008.09;3584194;39;20430;-55
2021/07/01 02:21:25;;;;;;;47.30;25.92;;;;;;;16.43;100.00;100002.97;3584231;39;20085;-56
2021/07/01 02:23:52;;;;;;;39.33;24.00;;;;;;;16.48;100.00;99996.00;3584440;39;20089;-56
2021/07/01 02:26:19;;;;;;;42.25;23.85;;;;;;;16.48;100.00;99998.59;3584124;39;20095;-55
2021/07/01 02:28:46;;;;;;;44.65;23.73;;;;;;;16.48;100.00;100002.91;3584041;39;20043;-55
2021/07/01 02:31:13;;;;;;;38.28;23.88;;;;;;;16.44;100.00;100003.81;3584237;39;20080;-57
2021/07/01 02:33:41;;;;;;;32.58;21.92;;;;;;;16.40;100.00;100000.38;3584383;39;20322;-51
2021/07/01 02:36:16;;;;;;;34.22;22.95;;;;;;;16.50;100.00;100004.63;3584699;39;20096;-56
2021/07/01 02:38:50;;;;;;;39.05;23.67;;;;;;;16.54;100.00;100000.25;3583889;39;20041;-57
2021/07/01 02:41:17;;;;;;;43.72;23.85;;;;;;;16.54;100.00;100002.84;3584138;39;20081;-51
2021/07/01 02:43:44;;;;;;;37.53;22.88;;;;;;;16.49;100.00;100002.03;3584132;39;20316;-57
2021/07/01 02:46:11;;;;;;;36.33;21.77;;;;;;;16.61;100.00;100006.25;3584129;39;20354;-51
2021/07/01 02:48:38;;;;;;;33.83;21.48;;;;;;;16.59;100.00;100006.22;3584061;39;20376;-55
2021/07/01 02:51:05;;;;;;;32.75;21.75;;;;;;;16.57;100.00;100007.13;3584545;39;20082;-57
2021/07/01 02:53:32;;;;;;;34.58;22.45;;;;;;;16.65;100.00;100005.34;3584179;39;20084;-53
2021/07/01 02:55:59;;;;;;;33.22;21.83;;;;;;;16.67;100.00;100008.75;3584091;39;20080;-53
2021/07/01 02:58:26;;;;;;;33.40;21.67;;;;;;;16.70;100.00;100013.91;3583969;39;20072;-57
2021/07/01 03:00:53;;;;;;;35.17;21.45;;;;;;;16.63;100.00;100009.66;3583994;39;20063;-51
2021/07/01 03:03:20;;;;;;;32.45;21.30;;;;;;;16.54;100.00;100008.88;3583984;39;20056;-53
2021/07/01 03:05:47;;;;;;;36.20;22.63;;;;;;;16.51;100.00;99995.13;3583898;39;20104;-55
2021/07/01 03:08:14;;;;;;;30.60;19.92;;;;;;;16.56;100.00;100001.13;3583841;39;20092;-52
2021/07/01 03:10:41;;;;;;;32.88;20.92;;;;;;;16.42;100.00;99990.06;3584072;39;20352;-55
2021/07/01 03:13:08;;;;;;;29.35;20.20;;;;;;;16.51;100.00;99990.81;3584536;39;20481;-53
2021/07/01 03:15:36;;;;;;;28.70;19.55;;;;;;;16.52;100.00;99983.94;3584304;39;20416;-56
2021/07/01 03:18:04;;;;;;;31.63;19.45;;;;;;;16.53;100.00;99980.47;3584014;39;20048;-55
2021/07/01 03:20:33;;;;;;;29.48;19.48;;;;;;;16.51;100.00;99970.16;3584082;39;20153;-54
2021/07/01 03:23:02;;;;;;;27.98;18.08;;;;;;;16.57;100.00;99974.38;3583575;39;20056;-50
2021/07/01 03:25:29;;;;;;;24.02;16.90;;;;;;;16.56;100.00;99975.28;3583839;39;20088;-53
2021/07/01 03:27:56;;;;;;;26.05;17.20;;;;;;;16.65;100.00;99967.41;3583910;39;20092;-56
2021/07/01 03:30:24;;;;;;;30.77;18.30;;;;;;;16.50;100.00;99970.13;3583568;39;20476;-54
2021/07/01 03:32:51;;;;;;;31.77;16.05;;;;;;;16.72;100.00;99974.25;3583811;39;20319;-56
2021/07/01 03:35:18;;;;;;;22.52;15.07;;;;;;;16.65;100.00;99980.34;3583521;39;20061;-49
2021/07/01 03:37:45;;;;;;;24.10;15.40;;;;;;;16.66;100.00;99984.63;3583523;39;20325;-49
2021/07/01 03:40:12;;;;;;;20.95;14.00;;;;;;;16.62;100.00;99987.25;3583726;39;20426;-47
2021/07/01 03:42:39;;;;;;;19.75;13.35;;;;;;;16.63;100.00;99992.41;3583791;39;20092;-48
2021/07/01 03:45:06;;;;;;;14.95;10.50;;;;;;;16.48;100.00;99993.44;3584089;39;20089;-49
2021/07/01 03:47:33;;;;;;;16.67;10.23;;;;;;;16.29;100.00;99989.31;3583644;39;20080;-51
2021/07/01 03:50:01;;;;;;;17.60;10.80;;;;;;;16.49;100.00;99995.13;3583481;39;20048;-50
2021/07/01 03:52:28;;;;;;;15.45;10.00;;;;;;;16.41;100.00;99991.78;3583648;39;20113;-47
2021/07/01 03:54:55;;;;;;;14.20;10.63;;;;;;;16.29;100.00;99990.16;3583678;39;20113;-50
2021/07/01 03:57:22;;;;;;;14.10;10.07;;;;;;;16.32;100.00;99999.63;3583795;39;20339;-47
2021/07/01 03:59:49;;;;;;;17.45;11.80;;;;;;;16.26;100.00;99987.59;3583539;39;20088;-52
2021/07/01 04:02:16;;;;;;;13.65;10.77;;;;;;;16.42;100.00;99990.91;3583673;39;20100;-49
2021/07/01 04:04:43;;;;;;;18.77;11.85;;;;;;;16.38;100.00;99980.63;3583356;39;20062;-46
2021/07/01 04:07:10;;;;;;;15.90;11.35;;;;;;;16.29;100.00;99981.56;3583564;39;20325;-49
2021/07/01 04:09:37;;;;;;;17.02;11.15;;;;;;;16.41;100.00;99981.44;3583971;39;20318;-47
2021/07/01 04:12:05;;;;;;;20.50;12.25;;;;;;;16.41;100.00;99983.19;3583338;39;20330;-49
2021/07/01 04:14:32;;;;;;;16.48;10.88;;;;;;;16.41;100.00;99981.44;3583360;39;20092;-53
2021/07/01 04:16:59;;;;;;;19.88;11.02;;;;;;;16.51;100.00;99979.63;3583410;39;20089;-56
2021/07/01 04:19:26;;;;;;;18.27;11.60;;;;;;;16.53;100.00;99978.72;3583322;39;20420;-53
2021/07/01 04:21:53;;;;;;;17.75;11.98;;;;;;;16.45;100.00;99979.66;3583418;39;20104;-53
2021/07/01 04:24:20;;;;;;;15.95;11.65;;;;;;;16.39;100.00;99972.00;3583656;39;20343;-46
2021/07/01 04:26:47;;;;;;;15.38;12.20;;;;;;;16.36;100.00;99965.13;3583326;39;20049;-49
2021/07/01 04:29:14;;;;;;;17.05;12.35;;;;;;;16.41;100.00;99971.13;3584782;39;20457;-53
2021/07/01 04:31:41;;;;;;;15.93;11.73;;;;;;;16.46;100.00;99971.06;3585245;39;20315;-56
2021/07/01 04:34:09;;;;;;;14.07;10.75;;;;;;;16.33;100.00;99965.16;3584820;39;20429;-52
2021/07/01 04:36:36;;;;;;;16.65;9.52;;;;;;;16.40;100.00;99976.28;3584879;39;20093;-51
2021/07/01 04:39:04;;;;;;;13.88;10.07;;;;;;;16.42;100.00;99975.41;3584681;39;20061;-51
2021/07/01 04:41:30;;;;;;;12.98;9.32;;;;;;;16.45;100.00;99980.53;3584516;39;20041;-53
2021/07/01 04:43:58;;;;;;;8.95;6.40;;;;;;;16.30;100.00;99983.25;3584963;39;20164;-52
2021/07/01 04:46:25;;;;;;;8.95;6.80;;;;;;;16.29;100.00;99981.56;3584844;39;20559;-49
2021/07/01 04:48:53;;;;;;;8.70;5.97;;;;;;;16.39;100.00;99990.94;3584524;39;20131;-50
2021/07/01 04:51:20;;;;;;;9.82;5.72;;;;;;;16.46;100.00;99991.75;3584924;39;20118;-53
2021/07/01 04:53:47;;;;;;;6.30;4.32;;;;;;;16.52;100.00;99996.84;3584748;39;20096;-50
2021/07/01 04:56:14;;;;;;;7.60;4.40;;;;;;;16.39;100.00;99993.50;3584830;39;20136;-49
2021/07/01 04:58:41;;;;;;;7.40;4.57;;;;;;;16.32;100.00;100002.22;3584612;39;20303;-51
2021/07/01 05:01:08;;;;;;;5.68;4.13;;;;;;;16.33;100.00;100000.47;3584882;39;20326;-51
2021/07/01 05:03:35;;;;;;;6.47;4.22;;;;;;;16.27;100.00;100001.41;3585118;39;20087;-51
2021/07/01 05:06:03;;;;;;;6.88;4.28;;;;;;;16.22;100.00;100000.56;3584837;39;20060;-55
2021/07/01 05:08:30;;;;;;;7.10;4.00;;;;;;;16.29;100.00;100009.97;3584458;39;20131;-48
2021/07/01 05:10:57;;;;;;;6.43;4.53;;;;;;;16.20;100.00;100015.22;3583374;39;20053;-55
2021/07/01 05:13:24;;;;;;;6.50;4.55;;;;;;;16.13;100.00;100004.09;3584401;39;20076;-51
2021/07/01 05:15:51;;;;;;;8.48;4.07;;;;;;;16.25;100.00;100009.13;3584718;39;20418;-56
2021/07/01 05:18:18;;;;;;;4.55;3.75;;;;;;;16.26;100.00;100007.41;3584389;39;20385;-52
2021/07/01 05:20:46;;;;;;;8.48;4.22;;;;;;;16.25;100.00;100013.44;3584415;39;20052;-54
2021/07/01 05:23:13;;;;;;;8.93;4.28;;;;;;;16.26;100.00;100004.81;3584345;39;20064;-55
2021/07/01 05:25:40;;;;;;;6.70;2.70;;;;;;;16.18;100.00;100014.38;3584373;39;20088;-55
2021/07/01 05:28:11;;;;;;;6.22;2.55;;;;;;;16.14;100.00;100012.69;3584548;39;20048;-53
2021/07/01 05:30:40;;;;;;;4.60;2.10;;;;;;;16.23;100.00;100021.22;3584227;39;20053;-58
2021/07/01 05:33:07;;;;;;;2.85;1.92;;;;;;;16.03;100.00;100016.19;3584579;39;20060;-53
2021/07/01 05:35:34;;;;;;;4.95;1.67;;;;;;;15.94;100.00;100010.25;3584169;39;20059;-53
2021/07/01 05:38:01;;;;;;;4.75;2.30;;;;;;;16.06;100.00;100017.91;3584462;39;20088;-52
2021/07/01 05:40:29;;;;;;;2.58;1.40;;;;;;;16.11;100.00;100016.16;3583627;39;20084;-53
2021/07/01 05:42:56;;;;;;;2.25;1.23;;;;;;;15.99;100.00;100019.69;3584493;39;20462;-53
2021/07/01 05:45:23;;;;;;;3.72;1.33;;;;;;;16.11;100.00;100017.88;3584551;39;20402;-55
2021/07/01 05:47:50;;;;;;;2.75;1.58;;;;;;;16.14;100.00;100017.88;3584266;39;20061;-54
2021/07/01 05:50:17;;;;;;;3.10;1.08;;;;;;;16.17;100.00;100017.81;3584349;39;20408;-52
2021/07/01 05:52:48;;;;;;;2.60;0.90;;;;;;;16.13;100.00;100021.28;3584592;39;20133;-48
2021/07/01 05:55:16;;;;;;;1.23;0.82;;;;;;;16.13;100.00;100024.75;3584419;39;20378;-52
2021/07/01 05:57:43;;;;;;;1.10;1.00;;;;;;;15.96;100.00;100029.19;3584305;39;20078;-52
2021/07/01 06:00:11;;;;;;;1.45;1.00;;;;;;;15.97;100.00;100033.47;3584191;39;20449;-47
2021/07/01 06:02:40;;;;;;;1.73;0.90;;;;;;;16.07;100.00;100026.50;3584831;39;20064;-48
2021/07/01 06:05:07;;;;;;;2.40;1.10;;;;;;;15.95;100.00;100037.81;3584530;39;20084;-52
2021/07/01 06:07:35;;;;;;;1.65;1.00;;;;;;;15.97;100.00;100046.38;3584305;39;20057;-53
2021/07/01 06:10:06;;;;;;;1.35;0.80;;;;;;;16.13;100.00;100050.59;3583976;39;20112;-53
2021/07/01 06:12:34;;;;;;;1.25;0.60;;;;;;;15.99;100.00;100047.22;3584356;39;20104;-47
2021/07/01 06:15:03;;;;;;;0.77;0.63;;;;;;;15.91;100.00;100054.19;3584360;39;20053;-52
2021/07/01 06:17:35;;;;;;;1.00;0.90;;;;;;;15.87;100.00;100055.91;3583987;39;20116;-55
2021/07/01 06:20:05;;;;;;;1.17;0.80;;;;;;;15.86;100.00;100069.69;3584146;39;20533;-54
2021/07/01 06:22:33;;;;;;;1.40;0.88;;;;;;;15.72;100.00;100063.75;3584195;39;20092;-53
2021/07/01 06:25:01;;;;;;;3.25;0.77;;;;;;;15.68;100.00;100072.38;3584244;39;20076;-48
2021/07/01 06:27:38;;;;;;;2.50;0.93;;;;;;;15.68;100.00;100070.66;3584111;39;20064;-53
2021/07/01 06:30:36;;;;;;;1.60;1.17;;;;;;;15.79;100.00;100073.16;3584649;39;20084;-54
2021/07/01 06:33:05;;;;;;;2.83;0.70;;;;;;;15.83;100.00;100087.78;3586795;39;20334;-53
2021/07/01 06:35:32;;;;;;;1.58;1.00;;;;;;;15.79;100.00;100094.69;3585516;39;20458;-53
2021/07/01 06:38:08;;;;;;;1.13;0.75;;;;;;;15.77;100.00;100090.41;3584096;39;20092;-54
2021/07/01 06:40:35;;;;;;;1.38;0.80;;;;;;;15.54;100.00;100093.06;3584194;39;20108;-51
2021/07/01 06:43:03;;;;;;;2.63;0.88;;;;;;;15.71;100.00;100098.16;3584371;39;20067;-52
2021/07/01 06:45:32;;;;;;;3.45;0.88;;;;;;;15.38;100.00;100096.53;3584026;39;20088;-52
2021/07/01 06:48:02;;;;;;;3.60;1.17;;;;;;;15.53;100.00;100093.94;3584103;39;20092;-51
2021/07/01 06:50:30;;;;;;;1.08;0.98;;;;;;;15.28;100.00;100101.72;3583447;39;20479;-49
2021/07/01 06:52:58;;;;;;;1.30;1.20;;;;;;;15.42;100.00;100106.00;3583728;39;20092;-49
2021/07/01 06:55:26;;;;;;;2.95;0.63;;;;;;;15.41;100.00;100109.44;3583756;39;20064;-51
2021/07/01 06:57:54;;;;;;;1.67;1.10;;;;;;;15.33;100.00;100112.03;3584064;39;20048;-49
2021/07/01 07:00:23;;;;;;;2.13;1.00;;;;;;;15.21;100.00;100106.94;3583603;39;20096;-51
2021/07/01 07:02:52;;;;;;;2.80;1.08;;;;;;;15.38;100.00;100112.03;3583718;39;20410;-52
2021/07/01 07:05:20;;;;;;;1.35;1.17;;;;;;;15.22;100.00;100109.50;3583888;39;20060;-49
2021/07/01 07:07:48;;;;;;;1.50;1.00;;;;;;;15.49;100.00;100112.88;3583252;39;20088;-49
2021/07/01 07:10:20;;;;;;;2.55;0.93;;;;;;;15.42;100.00;100117.16;3583543;39;20060;-51
2021/07/01 07:12:49;;;;;;;2.33;1.23;;;;;;;15.54;100.00;100118.88;3584308;39;20105;-52
2021/07/01 07:15:23;;;;;;;3.92;1.75;;;;;;;15.50;100.00;100115.44;3584006;39;20068;-53
2021/07/01 07:17:52;;;;;;;2.50;0.90;;;;;;;15.30;100.00;100117.22;3583616;39;20056;-52
2021/07/01 07:20:22;;;;;;;2.20;0.90;;;;;;;15.33;100.00;100117.19;3582534;39;20417;-51
2021/07/01 07:22:51;;;;;;;1.98;0.80;;;;;;;15.44;100.00;100117.19;3583837;39;20076;-51
2021/07/01 07:25:20;;;;;;;1.38;1.00;;;;;;;15.45;100.00;100119.75;3583928;39;20063;-50
2021/07/01 07:28:04;;;;;;;2.40;1.00;;;;;;;15.32;100.00;100125.81;3583629;39;20604;-51
2021/07/01 07:30:32;;;;;;;2.42;1.48;;;;;;;15.41;100.00;100124.94;3583667;39;20333;-55
2021/07/01 07:33:05;;;;;;;3.45;1.13;;;;;;;15.41;100.00;100130.09;3583880;39;20089;-56
2021/07/01 07:35:33;;;;;;;2.03;1.40;;;;;;;15.42;100.00;100130.06;3583443;39;20088;-55
2021/07/01 07:38:05;;;;;;;5.78;1.40;;;;;;;15.19;100.00;100134.44;3583817;39;20084;-54
2021/07/01 07:40:40;;;;;;;1.30;1.05;;;;;;;15.34;100.00;100128.38;3584042;39;20518;-57
2021/07/01 07:43:13;;;;;;;1.52;1.23;;;;;;;15.35;100.00;100138.72;3583831;39;20052;-55
2021/07/01 07:45:42;;;;;;;2.08;1.45;;;;;;;15.49;100.00;100136.09;3582740;39;20122;-53
2021/07/01 07:48:11;;;;;;;2.80;1.40;;;;;;;15.27;100.00;100122.38;3568401;40;20452;-50
2021/07/01 07:50:40;;;;;;;1.63;1.30;;;;;;;15.13;100.00;100140.47;3568596;40;20513;-50
2021/07/01 07:53:14;;;;;;;1.73;1.40;;;;;;;15.14;100.00;100133.59;3571913;40;20171;-55
2021/07/01 07:55:47;;;;;;;4.55;1.92;;;;;;;15.28;100.00;100137.00;3572840;40;20052;-55
2021/07/01 07:58:23;;;;;;;2.45;1.48;;;;;;;15.33;100.00;100137.84;3573040;40;20053;-52
2021/07/01 08:00:51;;;;;;;1.60;1.40;;;;;;;15.26;100.00;100137.00;3573540;40;20069;-49
2021/07/01 08:03:19;;;;;;;1.52;1.13;;;;;;;15.33;100.00;100136.97;3573202;40;20138;-55
2021/07/01 08:05:47;;;;;;;3.75;1.10;;;;;;;15.10;100.00;100140.47;3574764;40;20463;-56
2021/07/01 08:08:15;;;;;;;2.72;1.10;;;;;;;15.09;100.00;100133.59;3574460;40;20072;-51
2021/07/01 08:10:44;;;;;;;1.40;0.90;;;;;;;14.91;100.00;100139.63;3574389;40;20154;-53
2021/07/01 08:13:11;;;;;;;1.50;1.40;;;;;;;15.13;100.00;100144.78;3575084;40;20071;-56
2021/07/01 08:15:40;;;;;;;2.35;1.25;;;;;;;15.01;100.00;100136.19;3574755;40;20512;-52
2021/07/01 08:18:08;;;;;;;1.73;1.20;;;;;;;15.00;100.00;100133.63;3574659;40;20047;-52
2021/07/01 08:20:36;;;;;;;2.45;1.40;;;;;;;15.05;100.00;100143.91;3574371;40;20393;-52
2021/07/01 08:23:03;;;;;;;2.13;1.33;;;;;;;14.97;100.00;100146.50;3574291;40;20092;-51
2021/07/01 08:25:30;;;;;;;1.33;1.05;;;;;;;15.22;100.00;100160.22;3574668;40;20052;-55
2021/07/01 08:27:58;;;;;;;1.50;1.30;;;;;;;15.26;100.00;100157.66;3574525;40;20064;-52
2021/07/01 08:30:27;;;;;;;1.45;1.35;;;;;;;15.25;100.00;100165.38;3574393;40;20113;-53
2021/07/01 08:32:58;;;;;;;1.70;1.27;;;;;;;15.20;100.00;100159.34;3574754;40;20053;-51
2021/07/01 08:35:27;;;;;;;1.15;1.00;;;;;;;15.43;100.00;100161.88;3574224;40;20052;-58
2021/07/01 08:38:05;;;;;;;1.67;1.20;;;;;;;15.33;100.00;100161.06;3574711;40;20141;-55
2021/07/01 08:40:35;;;;;;;1.23;1.13;;;;;;;15.33;100.00;100158.47;3574740;40;20130;-54
2021/07/01 08:43:05;;;;;;;1.15;1.05;;;;;;;15.28;100.00;100171.38;3574708;40;20086;-48
2021/07/01 08:46:01;;;;;;;2.20;1.52;;;;;;;15.27;100.00;100179.13;3574455;40;22361;-51
2021/07/01 08:48:41;;;;;;;2.03;1.40;;;;;;;15.28;100.00;100168.81;3574383;40;20036;-52
2021/07/01 08:51:10;;;;;;;1.88;1.77;;;;;;;15.34;100.00;100170.50;3574946;40;20049;-50
2021/07/01 08:54:15;;;;;;;1.98;1.50;;;;;;;15.36;100.00;100173.09;3574873;40;20104;-49
2021/07/01 08:56:43;;;;;;;2.20;2.00;;;;;;;15.26;100.00;100182.59;3558770;40;20138;-49
2021/07/01 08:59:12;;;;;;;3.42;1.52;;;;;;;15.38;100.00;100189.44;3574825;40;20064;-48
2021/07/01 09:01:42;;;;;;;1.48;1.30;;;;;;;15.23;100.00;100188.59;3574867;40;20088;-50
2021/07/01 09:04:12;;;;;;;1.75;1.25;;;;;;;15.06;100.00;100189.47;3575042;40;20410;-50
2021/07/01 09:06:39;;;;;;;1.50;1.40;;;;;;;15.14;100.00;100193.75;3574959;40;20075;-54
2021/07/01 09:09:11;;;;;;;1.50;1.40;;;;;;;15.17;100.00;100192.91;3574123;40;20094;-52
2021/07/01 09:11:40;;;;;;;1.95;1.85;;;;;;;15.14;100.00;100198.06;3574499;40;20088;-52
2021/07/01 09:14:10;;;;;;;1.92;1.70;;;;;;;15.09;100.00;100192.06;3574519;40;20425;-54
2021/07/01 09:16:39;;;;;;;2.50;2.25;;;;;;;15.06;100.00;100200.63;3574335;40;20124;-58
2021/07/01 09:19:06;;;;;;;2.78;1.48;;;;;;;15.05;100.00;100200.66;3574537;40;20446;-55
2021/07/01 09:21:34;;;;;;;1.80;1.70;;;;;;;15.23;100.00;100203.22;3574307;40;20061;-56
2021/07/01 09:24:04;;;;;;;3.25;1.98;;;;;;;15.42;100.00;100210.06;3574622;40;20385;-54
2021/07/01 09:26:31;;;;;;;2.58;1.80;;;;;;;15.25;100.00;100207.53;3574680;40;20089;-55
2021/07/01 09:28:58;;;;;;;2.05;1.90;;;;;;;15.41;100.00;100215.22;3574173;40;20097;-55
2021/07/01 09:31:27;;;;;;;2.83;1.90;;;;;;;15.51;100.00;100210.03;3574236;40;20367;-57
2021/07/01 09:33:55;;;;;;;1.92;1.80;;;;;;;15.43;100.00;100208.34;3574335;40;20122;-56
2021/07/01 09:36:24;;;;;;;1.67;1.58;;;;;;;15.32;100.00;100210.94;3574389;40;20101;-57
2021/07/01 09:38:54;;;;;;;2.45;2.13;;;;;;;15.26;100.00;100214.41;3573960;40;20406;-57
2021/07/01 09:41:23;;;;;;;2.53;2.22;;;;;;;15.36;100.00;100215.25;3574395;40;20084;-55
2021/07/01 09:43:51;;;;;;;2.53;2.30;;;;;;;15.11;100.00;100219.53;3574294;40;20065;-56
2021/07/01 09:46:23;;;;;;;2.30;2.10;;;;;;;15.17;100.00;100223.88;3574291;40;20380;-54
2021/07/01 09:48:52;;;;;;;1.70;1.60;;;;;;;15.09;100.00;100220.41;3574202;40;20045;-54
2021/07/01 09:51:20;;;;;;;2.47;2.28;;;;;;;15.26;100.00;100221.28;3573877;40;20093;-56
2021/07/01 09:53:52;;;;;;;2.13;1.92;;;;;;;15.44;100.00;100218.69;3574065;40;20097;-50
2021/07/01 09:56:41;;;;;;;1.98;1.80;;;;;;;15.07;100.00;100225.59;3574275;40;20089;-56
2021/07/01 09:59:21;;;;;;;1.90;1.80;;;;;;;15.41;100.00;100222.97;3574463;40;20082;-52
2021/07/01 10:01:48;;;;;;;2.13;1.90;;;;;;;15.55;100.00;100228.97;3574114;40;20077;-53
2021/07/01 10:04:16;;;;;;;2.92;2.13;;;;;;;15.46;100.00;100227.25;3574269;40;20061;-53
2021/07/01 10:06:43;;;;;;;2.10;1.90;;;;;;;15.56;100.00;100241.00;3574235;40;20096;-53
2021/07/01 10:09:29;;;;;;;1.63;1.52;;;;;;;15.54;100.00;100235.84;3574178;40;20041;-55
2021/07/01 10:11:56;;;;;;;2.33;2.08;;;;;;;15.51;100.00;100237.56;3574085;40;20081;-54
2021/07/01 10:14:25;;;;;;;3.45;2.33;;;;;;;15.44;100.00;100236.75;3576105;40;20085;-58
2021/07/01 10:16:53;;;;;;;2.78;2.45;;;;;;;15.40;100.00;100231.59;3576876;40;20057;-57
2021/07/01 10:19:23;;;;;;;1.90;1.70;;;;;;;15.39;100.00;100233.31;3574621;40;20080;-56
2021/07/01 10:22:05;;;;;;;2.30;2.10;;;;;;;15.58;100.00;100235.84;3573851;40;20124;-56
2021/07/01 10:24:35;;;;;;;2.90;2.63;;;;;;;15.49;100.00;100229.00;3573827;40;20069;-56
2021/07/01 10:27:03;;;;;;;3.80;2.75;;;;;;;15.45;100.00;100240.16;3573703;40;20088;-55
2021/07/01 10:29:39;;;;;;;3.17;2.92;;;;;;;15.53;100.00;100236.72;3573911;40;20109;-58
2021/07/01 10:32:09;;;;;;;4.53;3.60;;;;;;;15.43;100.00;100236.72;3574189;40;20065;-50
2021/07/01 10:34:49;;;;;;;3.78;3.47;;;;;;;15.34;100.00;100231.56;3574172;40;20130;-55
2021/07/01 10:37:19;;;;;;;4.63;3.78;;;;;;;15.23;100.00;100244.47;3573876;40;20076;-54
2021/07/01 10:39:51;;;;;;;5.05;4.53;;;;;;;15.16;100.00;100251.38;3573982;40;20100;-56
2021/07/01 10:42:19;;;;;;;4.95;4.55;;;;;;;15.17;100.00;100252.25;3574151;40;20121;-55
2021/07/01 10:44:46;;;;;;;5.00;4.60;;;;;;;15.08;100.00;100254.81;3573915;40;20085;-51
2021/07/01 10:47:27;;;;;;;4.85;4.45;;;;;;;15.14;100.00;100263.41;3573707;40;20060;-51
2021/07/01 10:49:55;;;;;;;4.80;4.10;;;;;;;15.32;100.00;100266.84;3573033;40;20405;-52
2021/07/01 10:52:44;;;;;;;4.30;3.90;;;;;;;15.33;100.00;100261.66;3573916;40;20064;-58
2021/07/01 10:55:14;;;;;;;4.60;4.07;;;;;;;15.21;100.00;100266.84;3573972;40;20086;-55
2021/07/01 10:58:02;;;;;;;4.25;3.90;;;;;;;15.10;100.00;100269.41;3573620;40;20090;-52
2021/07/01 11:00:48;;;;;;;4.30;3.92;;;;;;;15.42;100.00;100266.81;3573866;40;20096;-57
2021/07/01 11:03:35;;;;;;;4.18;3.88;;;;;;;15.45;100.00;100273.72;3573694;40;20476;-54
2021/07/01 11:06:14;;;;;;;4.50;4.13;;;;;;;15.53;100.00;100274.56;3573483;40;20048;-55
2021/07/01 11:08:53;;;;;;;4.15;3.75;;;;;;;15.50;100.00;100280.59;3573403;40;20033;-54
2021/07/01 11:11:31;;;;;;;4.28;3.97;;;;;;;15.46;100.00;100276.28;3573004;40;20061;-59
2021/07/01 11:14:10;;;;;;;5.63;3.88;;;;;;;15.75;100.00;100278.00;3573583;40;20330;-54
2021/07/01 11:16:45;;;;;;;4.88;4.38;;;;;;;15.93;100.00;100280.53;3573575;40;20142;-54
2021/07/01 11:19:18;;;;;;;3.97;3.67;;;;;;;15.79;100.00;100282.28;3574029;40;20379;-54
2021/07/01 11:21:48;;;;;;;4.78;4.35;;;;;;;15.37;100.00;100286.59;3573497;40;20319;-53